sensor_id;sensor_type;location;lat;lon;timestamp;temperature;humidity
7388;DHT22;3735;50.136;11.062;2023-11-19T00:00:33;5.60;99.90
7388;DHT22;3735;50.136;11.062;2023-11-19T00:02:59;5.50;99.90
7388;DHT22;3735;50.136;11.062;2023-11-19T00:05:25;5.50;99.90
7388;DHT22;3735;50.136;11.062;2023-11-19T00:07:51;5.50;99.90
7388;DHT22;3735;50.136;11.062;2023-11-19T00:10:17;5.50;99.90
7388;DHT22;3735;50.136;11.062;2023-11-19T00:12:45;5.50;99.90
7388;DHT22;3735;50.136;11.062;2023-11-19T00:15:13;5.60;99.90
7388;DHT22;3735;50.136;11.062;2023-11-19T00:17:40;5.60;99.90
7388;DHT22;3735;50.136;11.062;2023-11-19T00:20:11;5.70;99.90
7388;DHT22;3735;50.136;11.062;2023-11-19T00:22:37;5.60;99.90
7388;DHT22;3735;50.136;11.062;2023-11-19T00:25:04;5.60;99.90
7388;DHT22;3735;50.136;11.062;2023-11-19T00:27:31;5.60;99.90
7388;DHT22;3735;50.136;11.062;2023-11-19T00:29:56;5.70;99.90
7388;DHT22;3735;50.136;11.062;2023-11-19T00:32:23;5.70;99.90
7388;DHT22;3735;50.136;11.062;2023-11-19T00:34:48;5.70;99.90
7388;DHT22;3735;50.136;11.062;2023-11-19T00:37:15;5.70;99.90
7388;DHT22;3735;50.136;11.062;2023-11-19T00:39:41;5.70;99.90
7388;DHT22;3735;50.136;11.062;2023-11-19T00:42:07;5.70;99.90
7388;DHT22;3735;50.136;11.062;2023-11-19T00:44:33;5.70;99.90
7388;DHT22;3735;50.136;11.062;2023-11-19T00:46:59;5.70;99.90
7388;DHT22;3735;50.136;11.062;2023-11-19T00:49:25;5.70;99.90
7388;DHT22;3735;50.136;11.062;2023-11-19T00:51:51;5.80;99.90
7388;DHT22;3735;50.136;11.062;2023-11-19T00:54:17;5.80;99.90
7388;DHT22;3735;50.136;11.062;2023-11-19T00:56:43;5.80;99.90
7388;DHT22;3735;50.136;11.062;2023-11-19T00:59:10;5.80;99.90
7388;DHT22;3735;50.136;11.062;2023-11-19T01:01:36;5.80;99.90
7388;DHT22;3735;50.136;11.062;2023-11-19T01:04:01;5.80;99.90
7388;DHT22;3735;50.136;11.062;2023-11-19T01:06:29;5.80;99.90
7388;DHT22;3735;50.136;11.062;2023-11-19T01:08:56;5.80;99.90
7388;DHT22;3735;50.136;11.062;2023-11-19T01:11:22;5.80;99.90
7388;DHT22;3735;50.136;11.062;2023-11-19T01:13:49;5.80;99.90
7388;DHT22;3735;50.136;11.062;2023-11-19T01:16:15;5.70;99.90
7388;DHT22;3735;50.136;11.062;2023-11-19T01:18:41;5.70;99.90
7388;DHT22;3735;50.136;11.062;2023-11-19T01:21:07;5.70;99.90
7388;DHT22;3735;50.136;11.062;2023-11-19T01:23:34;5.70;99.90
7388;DHT22;3735;50.136;11.062;2023-11-19T01:26:00;5.70;99.90
7388;DHT22;3735;50.136;11.062;2023-11-19T01:28:26;5.70;99.90
7388;DHT22;3735;50.136;11.062;2023-11-19T01:30:52;5.70;99.90
7388;DHT22;3735;50.136;11.062;2023-11-19T01:33:17;5.60;99.90
7388;DHT22;3735;50.136;11.062;2023-11-19T01:35:43;5.60;99.90
7388;DHT22;3735;50.136;11.062;2023-11-19T01:38:09;5.60;99.90
7388;DHT22;3735;50.136;11.062;2023-11-19T01:40:36;5.80;99.90
7388;DHT22;3735;50.136;11.062;2023-11-19T01:43:03;5.70;99.90
7388;DHT22;3735;50.136;11.062;2023-11-19T01:45:30;5.70;99.90
7388;DHT22;3735;50.136;11.062;2023-11-19T01:47:57;5.70;99.90
7388;DHT22;3735;50.136;11.062;2023-11-19T01:50:24;5.60;99.90
7388;DHT22;3735;50.136;11.062;2023-11-19T01:52:54;5.60;99.90
7388;DHT22;3735;50.136;11.062;2023-11-19T01:55:24;5.60;99.90
7388;DHT22;3735;50.136;11.062;2023-11-19T01:57:54;5.70;99.90
7388;DHT22;3735;50.136;11.062;2023-11-19T02:00:24;5.60;99.90
7388;DHT22;3735;50.136;11.062;2023-11-19T02:02:52;5.70;99.90
7388;DHT22;3735;50.136;11.062;2023-11-19T02:05:18;5.60;99.90
7388;DHT22;3735;50.136;11.062;2023-11-19T02:07:43;5.60;99.90
7388;DHT22;3735;50.136;11.062;2023-11-19T02:10:11;5.70;99.90
7388;DHT22;3735;50.136;11.062;2023-11-19T02:12:40;5.60;99.90
7388;DHT22;3735;50.136;11.062;2023-11-19T02:15:09;5.60;99.90
7388;DHT22;3735;50.136;11.062;2023-11-19T02:17:35;5.60;99.90
7388;DHT22;3735;50.136;11.062;2023-11-19T02:20:03;5.60;99.90
7388;DHT22;3735;50.136;11.062;2023-11-19T02:22:35;5.60;99.90
7388;DHT22;3735;50.136;11.062;2023-11-19T02:25:04;5.70;99.90
7388;DHT22;3735;50.136;11.062;2023-11-19T02:27:53;5.60;99.90
7388;DHT22;3735;50.136;11.062;2023-11-19T02:30:21;5.70;99.90
7388;DHT22;3735;50.136;11.062;2023-11-19T02:32:58;5.70;99.90
7388;DHT22;3735;50.136;11.062;2023-11-19T02:35:27;5.70;99.90
7388;DHT22;3735;50.136;11.062;2023-11-19T02:37:56;5.70;99.90
7388;DHT22;3735;50.136;11.062;2023-11-19T02:40:22;5.60;99.90
7388;DHT22;3735;50.136;11.062;2023-11-19T02:42:50;5.60;99.90
7388;DHT22;3735;50.136;11.062;2023-11-19T02:45:16;5.60;99.90
7388;DHT22;3735;50.136;11.062;2023-11-19T02:47:43;5.60;99.90
7388;DHT22;3735;50.136;11.062;2023-11-19T02:50:10;5.70;99.90
7388;DHT22;3735;50.136;11.062;2023-11-19T02:52:43;5.70;99.90
7388;DHT22;3735;50.136;11.062;2023-11-19T02:55:11;5.70;99.90
7388;DHT22;3735;50.136;11.062;2023-11-19T02:57:40;5.70;99.90
7388;DHT22;3735;50.136;11.062;2023-11-19T03:00:18;5.70;99.90
7388;DHT22;3735;50.136;11.062;2023-11-19T03:02:49;5.70;99.90
7388;DHT22;3735;50.136;11.062;2023-11-19T03:05:24;5.70;99.90
7388;DHT22;3735;50.136;11.062;2023-11-19T03:07:52;5.70;99.90
7388;DHT22;3735;50.136;11.062;2023-11-19T03:10:18;5.60;99.90
7388;DHT22;3735;50.136;11.062;2023-11-19T03:12:44;5.70;99.90
7388;DHT22;3735;50.136;11.062;2023-11-19T03:15:13;5.70;99.90
7388;DHT22;3735;50.136;11.062;2023-11-19T03:17:40;5.70;99.90
7388;DHT22;3735;50.136;11.062;2023-11-19T03:20:09;5.80;99.90
7388;DHT22;3735;50.136;11.062;2023-11-19T03:22:39;5.80;99.90
7388;DHT22;3735;50.136;11.062;2023-11-19T03:25:07;5.80;99.90
7388;DHT22;3735;50.136;11.062;2023-11-19T03:27:34;5.90;99.90
7388;DHT22;3735;50.136;11.062;2023-11-19T03:30:05;5.90;99.90
7388;DHT22;3735;50.136;11.062;2023-11-19T03:32:32;5.90;99.90
7388;DHT22;3735;50.136;11.062;2023-11-19T03:35:00;5.80;99.90
7388;DHT22;3735;50.136;11.062;2023-11-19T03:37:26;5.90;99.90
7388;DHT22;3735;50.136;11.062;2023-11-19T03:39:54;5.90;99.90
7388;DHT22;3735;50.136;11.062;2023-11-19T03:42:20;5.90;99.90
7388;DHT22;3735;50.136;11.062;2023-11-19T03:44:46;5.90;99.90
7388;DHT22;3735;50.136;11.062;2023-11-19T03:47:12;5.90;99.90
7388;DHT22;3735;50.136;11.062;2023-11-19T03:49:38;5.90;99.90
7388;DHT22;3735;50.136;11.062;2023-11-19T03:52:04;5.90;99.90
7388;DHT22;3735;50.136;11.062;2023-11-19T03:54:30;5.90;99.90
7388;DHT22;3735;50.136;11.062;2023-11-19T03:56:55;5.90;99.90
7388;DHT22;3735;50.136;11.062;2023-11-19T03:59:21;5.90;99.90
7388;DHT22;3735;50.136;11.062;2023-11-19T04:01:47;5.90;99.90
7388;DHT22;3735;50.136;11.062;2023-11-19T04:04:13;5.90;99.90
7388;DHT22;3735;50.136;11.062;2023-11-19T04:06:39;5.90;99.90
7388;DHT22;3735;50.136;11.062;2023-11-19T04:09:05;5.90;99.90
7388;DHT22;3735;50.136;11.062;2023-11-19T04:11:31;5.90;99.90
7388;DHT22;3735;50.136;11.062;2023-11-19T04:13:58;5.90;99.90
7388;DHT22;3735;50.136;11.062;2023-11-19T04:16:27;6.00;99.90
7388;DHT22;3735;50.136;11.062;2023-11-19T04:18:54;5.90;99.90
7388;DHT22;3735;50.136;11.062;2023-11-19T04:21:19;5.90;99.90
7388;DHT22;3735;50.136;11.062;2023-11-19T04:23:45;5.90;99.90
7388;DHT22;3735;50.136;11.062;2023-11-19T04:26:11;5.90;99.90
7388;DHT22;3735;50.136;11.062;2023-11-19T04:28:37;5.90;99.90
7388;DHT22;3735;50.136;11.062;2023-11-19T04:31:03;5.90;99.90
7388;DHT22;3735;50.136;11.062;2023-11-19T04:33:29;5.90;99.90
7388;DHT22;3735;50.136;11.062;2023-11-19T04:35:54;5.90;99.90
7388;DHT22;3735;50.136;11.062;2023-11-19T04:38:20;6.00;99.90
7388;DHT22;3735;50.136;11.062;2023-11-19T04:40:46;6.00;99.90
7388;DHT22;3735;50.136;11.062;2023-11-19T04:43:12;6.00;99.90
7388;DHT22;3735;50.136;11.062;2023-11-19T04:45:38;6.10;99.90
7388;DHT22;3735;50.136;11.062;2023-11-19T04:50:37;6.40;99.90
7388;DHT22;3735;50.136;11.062;2023-11-19T04:53:03;6.40;99.90
7388;DHT22;3735;50.136;11.062;2023-11-19T04:55:29;6.50;99.90
7388;DHT22;3735;50.136;11.062;2023-11-19T04:57:55;6.60;99.90
7388;DHT22;3735;50.136;11.062;2023-11-19T05:00:21;6.70;99.90
7388;DHT22;3735;50.136;11.062;2023-11-19T05:02:47;6.80;99.90
7388;DHT22;3735;50.136;11.062;2023-11-19T05:05:12;6.90;99.90
7388;DHT22;3735;50.136;11.062;2023-11-19T05:07:38;6.90;99.90
7388;DHT22;3735;50.136;11.062;2023-11-19T05:10:04;7.00;99.90
7388;DHT22;3735;50.136;11.062;2023-11-19T05:12:31;7.00;99.90
7388;DHT22;3735;50.136;11.062;2023-11-19T05:14:57;7.10;99.90
7388;DHT22;3735;50.136;11.062;2023-11-19T05:17:23;7.10;99.90
7388;DHT22;3735;50.136;11.062;2023-11-19T05:19:49;7.20;99.90
7388;DHT22;3735;50.136;11.062;2023-11-19T05:22:15;7.20;99.90
7388;DHT22;3735;50.136;11.062;2023-11-19T05:24:41;7.30;99.90
7388;DHT22;3735;50.136;11.062;2023-11-19T05:27:07;7.30;99.90
7388;DHT22;3735;50.136;11.062;2023-11-19T05:29:33;7.40;99.90
7388;DHT22;3735;50.136;11.062;2023-11-19T05:31:59;7.40;99.90
7388;DHT22;3735;50.136;11.062;2023-11-19T05:34:25;7.40;99.90
7388;DHT22;3735;50.136;11.062;2023-11-19T05:36:51;7.50;99.90
7388;DHT22;3735;50.136;11.062;2023-11-19T05:39:17;7.50;99.90
7388;DHT22;3735;50.136;11.062;2023-11-19T05:41:44;7.50;99.90
7388;DHT22;3735;50.136;11.062;2023-11-19T05:44:10;7.50;99.90
7388;DHT22;3735;50.136;11.062;2023-11-19T05:46:35;7.50;99.90
7388;DHT22;3735;50.136;11.062;2023-11-19T05:49:05;7.50;99.90
7388;DHT22;3735;50.136;11.062;2023-11-19T05:51:31;7.50;99.90
7388;DHT22;3735;50.136;11.062;2023-11-19T05:53:57;7.50;99.90
7388;DHT22;3735;50.136;11.062;2023-11-19T05:56:23;7.50;99.90
7388;DHT22;3735;50.136;11.062;2023-11-19T05:58:50;7.60;99.90
7388;DHT22;3735;50.136;11.062;2023-11-19T06:01:16;7.60;99.90
7388;DHT22;3735;50.136;11.062;2023-11-19T06:03:42;7.60;99.90
7388;DHT22;3735;50.136;11.062;2023-11-19T06:06:08;7.60;99.90
7388;DHT22;3735;50.136;11.062;2023-11-19T06:08:34;7.60;99.90
7388;DHT22;3735;50.136;11.062;2023-11-19T06:11:00;7.70;99.90
7388;DHT22;3735;50.136;11.062;2023-11-19T06:13:26;7.60;99.90
7388;DHT22;3735;50.136;11.062;2023-11-19T06:15:52;7.60;99.90
7388;DHT22;3735;50.136;11.062;2023-11-19T06:18:18;7.60;99.90
7388;DHT22;3735;50.136;11.062;2023-11-19T06:20:45;7.60;99.90
7388;DHT22;3735;50.136;11.062;2023-11-19T06:23:11;7.50;99.90
7388;DHT22;3735;50.136;11.062;2023-11-19T06:25:37;7.50;99.90
7388;DHT22;3735;50.136;11.062;2023-11-19T06:28:03;7.50;99.90
7388;DHT22;3735;50.136;11.062;2023-11-19T06:30:29;7.40;99.90
7388;DHT22;3735;50.136;11.062;2023-11-19T06:32:58;7.50;99.90
7388;DHT22;3735;50.136;11.062;2023-11-19T06:35:24;7.50;99.90
7388;DHT22;3735;50.136;11.062;2023-11-19T06:37:49;7.60;99.90
7388;DHT22;3735;50.136;11.062;2023-11-19T06:40:15;7.60;99.90
7388;DHT22;3735;50.136;11.062;2023-11-19T06:42:42;7.60;99.90
7388;DHT22;3735;50.136;11.062;2023-11-19T06:45:07;7.70;99.90
7388;DHT22;3735;50.136;11.062;2023-11-19T06:47:34;7.80;99.90
7388;DHT22;3735;50.136;11.062;2023-11-19T06:50:00;7.80;99.90
7388;DHT22;3735;50.136;11.062;2023-11-19T06:52:26;7.90;99.90
7388;DHT22;3735;50.136;11.062;2023-11-19T06:54:51;7.90;99.90
7388;DHT22;3735;50.136;11.062;2023-11-19T06:57:17;7.80;99.90
7388;DHT22;3735;50.136;11.062;2023-11-19T06:59:43;7.80;99.90
7388;DHT22;3735;50.136;11.062;2023-11-19T07:02:09;7.80;99.90
7388;DHT22;3735;50.136;11.062;2023-11-19T07:04:35;7.80;99.90
7388;DHT22;3735;50.136;11.062;2023-11-19T07:07:00;7.80;99.90
7388;DHT22;3735;50.136;11.062;2023-11-19T07:09:26;7.80;99.90
7388;DHT22;3735;50.136;11.062;2023-11-19T07:11:52;7.80;99.90
7388;DHT22;3735;50.136;11.062;2023-11-19T07:14:19;7.80;99.90
7388;DHT22;3735;50.136;11.062;2023-11-19T07:16:45;7.80;99.90
7388;DHT22;3735;50.136;11.062;2023-11-19T07:19:16;7.90;99.90
7388;DHT22;3735;50.136;11.062;2023-11-19T07:21:42;7.90;99.90
7388;DHT22;3735;50.136;11.062;2023-11-19T07:24:11;7.90;99.90
7388;DHT22;3735;50.136;11.062;2023-11-19T07:26:45;7.90;99.90
7388;DHT22;3735;50.136;11.062;2023-11-19T07:29:13;7.90;99.90
7388;DHT22;3735;50.136;11.062;2023-11-19T07:31:39;7.90;99.90
7388;DHT22;3735;50.136;11.062;2023-11-19T07:34:05;7.90;99.90
7388;DHT22;3735;50.136;11.062;2023-11-19T07:36:32;8.00;99.90
7388;DHT22;3735;50.136;11.062;2023-11-19T07:38:58;8.10;99.90
7388;DHT22;3735;50.136;11.062;2023-11-19T07:41:24;8.20;99.90
7388;DHT22;3735;50.136;11.062;2023-11-19T07:43:51;8.30;99.90
7388;DHT22;3735;50.136;11.062;2023-11-19T07:46:17;8.30;99.90
7388;DHT22;3735;50.136;11.062;2023-11-19T07:48:46;8.40;99.90
7388;DHT22;3735;50.136;11.062;2023-11-19T07:51:13;8.60;99.90
7388;DHT22;3735;50.136;11.062;2023-11-19T07:53:40;8.80;99.90
7388;DHT22;3735;50.136;11.062;2023-11-19T07:56:07;9.00;99.90
7388;DHT22;3735;50.136;11.062;2023-11-19T07:58:33;9.10;99.90
7388;DHT22;3735;50.136;11.062;2023-11-19T08:01:00;9.20;99.90
7388;DHT22;3735;50.136;11.062;2023-11-19T08:03:29;9.30;99.90
7388;DHT22;3735;50.136;11.062;2023-11-19T08:05:57;9.40;99.90
7388;DHT22;3735;50.136;11.062;2023-11-19T08:08:23;9.50;99.90
7388;DHT22;3735;50.136;11.062;2023-11-19T08:10:49;9.60;99.90
7388;DHT22;3735;50.136;11.062;2023-11-19T08:13:17;9.70;99.90
7388;DHT22;3735;50.136;11.062;2023-11-19T08:15:46;9.70;99.90
7388;DHT22;3735;50.136;11.062;2023-11-19T08:18:12;9.80;99.90
7388;DHT22;3735;50.136;11.062;2023-11-19T08:20:38;9.80;99.90
7388;DHT22;3735;50.136;11.062;2023-11-19T08:23:04;9.80;99.90
7388;DHT22;3735;50.136;11.062;2023-11-19T08:25:31;9.90;99.90
7388;DHT22;3735;50.136;11.062;2023-11-19T08:27:59;10.00;99.90
7388;DHT22;3735;50.136;11.062;2023-11-19T08:30:25;10.10;99.90
7388;DHT22;3735;50.136;11.062;2023-11-19T08:32:51;10.20;99.90
7388;DHT22;3735;50.136;11.062;2023-11-19T08:35:17;10.30;99.90
7388;DHT22;3735;50.136;11.062;2023-11-19T08:37:42;10.20;99.90
7388;DHT22;3735;50.136;11.062;2023-11-19T08:40:09;10.20;99.90
7388;DHT22;3735;50.136;11.062;2023-11-19T08:42:35;10.20;99.90
7388;DHT22;3735;50.136;11.062;2023-11-19T08:45:00;10.20;99.90
7388;DHT22;3735;50.136;11.062;2023-11-19T08:47:26;10.20;99.90
7388;DHT22;3735;50.136;11.062;2023-11-19T08:49:52;10.20;99.90
7388;DHT22;3735;50.136;11.062;2023-11-19T08:52:18;10.30;99.90
7388;DHT22;3735;50.136;11.062;2023-11-19T08:54:44;10.30;99.90
7388;DHT22;3735;50.136;11.062;2023-11-19T08:57:10;10.30;99.90
7388;DHT22;3735;50.136;11.062;2023-11-19T08:59:36;10.30;99.90
7388;DHT22;3735;50.136;11.062;2023-11-19T09:02:05;10.30;99.90
7388;DHT22;3735;50.136;11.062;2023-11-19T09:04:32;10.40;99.90
7388;DHT22;3735;50.136;11.062;2023-11-19T09:06:58;10.40;99.90
7388;DHT22;3735;50.136;11.062;2023-11-19T09:09:24;10.40;99.90
7388;DHT22;3735;50.136;11.062;2023-11-19T09:11:50;10.50;99.90
7388;DHT22;3735;50.136;11.062;2023-11-19T09:14:16;10.50;99.90
7388;DHT22;3735;50.136;11.062;2023-11-19T09:16:43;10.50;99.90
7388;DHT22;3735;50.136;11.062;2023-11-19T09:19:09;10.70;99.90
7388;DHT22;3735;50.136;11.062;2023-11-19T09:21:35;10.60;99.90
7388;DHT22;3735;50.136;11.062;2023-11-19T09:24:04;10.70;99.90
7388;DHT22;3735;50.136;11.062;2023-11-19T09:26:30;10.90;99.90
7388;DHT22;3735;50.136;11.062;2023-11-19T09:28:56;11.10;99.90
7388;DHT22;3735;50.136;11.062;2023-11-19T09:31:22;11.20;99.90
7388;DHT22;3735;50.136;11.062;2023-11-19T09:33:48;11.40;99.90
7388;DHT22;3735;50.136;11.062;2023-11-19T09:36:14;11.80;99.90
7388;DHT22;3735;50.136;11.062;2023-11-19T09:38:43;12.90;99.90
7388;DHT22;3735;50.136;11.062;2023-11-19T09:41:10;12.70;99.90
7388;DHT22;3735;50.136;11.062;2023-11-19T09:43:42;12.10;99.90
7388;DHT22;3735;50.136;11.062;2023-11-19T09:46:13;11.80;99.90
7388;DHT22;3735;50.136;11.062;2023-11-19T09:48:40;11.70;99.90
7388;DHT22;3735;50.136;11.062;2023-11-19T09:51:09;11.70;99.90
7388;DHT22;3735;50.136;11.062;2023-11-19T09:53:39;11.70;99.90
7388;DHT22;3735;50.136;11.062;2023-11-19T09:56:07;11.70;99.90
7388;DHT22;3735;50.136;11.062;2023-11-19T09:58:33;11.70;99.90
7388;DHT22;3735;50.136;11.062;2023-11-19T10:01:00;11.60;99.90
7388;DHT22;3735;50.136;11.062;2023-11-19T10:03:34;11.60;99.90
7388;DHT22;3735;50.136;11.062;2023-11-19T10:06:03;11.60;99.90
7388;DHT22;3735;50.136;11.062;2023-11-19T10:08:32;11.60;99.90
7388;DHT22;3735;50.136;11.062;2023-11-19T10:10:58;11.60;99.90
7388;DHT22;3735;50.136;11.062;2023-11-19T10:13:28;11.70;99.90
7388;DHT22;3735;50.136;11.062;2023-11-19T10:15:56;11.70;99.90
7388;DHT22;3735;50.136;11.062;2023-11-19T10:18:26;11.70;99.90
7388;DHT22;3735;50.136;11.062;2023-11-19T10:20:52;11.90;99.90
7388;DHT22;3735;50.136;11.062;2023-11-19T10:23:20;11.90;99.90
7388;DHT22;3735;50.136;11.062;2023-11-19T10:25:46;12.00;99.90
7388;DHT22;3735;50.136;11.062;2023-11-19T10:28:15;12.10;99.90
7388;DHT22;3735;50.136;11.062;2023-11-19T10:30:42;12.30;99.90
7388;DHT22;3735;50.136;11.062;2023-11-19T10:33:15;12.30;99.90
7388;DHT22;3735;50.136;11.062;2023-11-19T10:35:55;12.30;99.90
7388;DHT22;3735;50.136;11.062;2023-11-19T10:38:23;12.20;99.90
7388;DHT22;3735;50.136;11.062;2023-11-19T10:40:53;12.20;99.90
7388;DHT22;3735;50.136;11.062;2023-11-19T10:43:23;12.10;99.90
7388;DHT22;3735;50.136;11.062;2023-11-19T10:45:49;12.00;99.90
7388;DHT22;3735;50.136;11.062;2023-11-19T10:48:15;12.00;99.90
7388;DHT22;3735;50.136;11.062;2023-11-19T10:50:43;11.80;99.90
7388;DHT22;3735;50.136;11.062;2023-11-19T10:53:12;11.70;99.90
7388;DHT22;3735;50.136;11.062;2023-11-19T10:55:41;11.60;99.90
7388;DHT22;3735;50.136;11.062;2023-11-19T10:58:15;11.50;99.90
7388;DHT22;3735;50.136;11.062;2023-11-19T11:01:00;11.60;99.90
7388;DHT22;3735;50.136;11.062;2023-11-19T11:03:36;11.90;99.90
7388;DHT22;3735;50.136;11.062;2023-11-19T11:06:05;11.80;99.90
7388;DHT22;3735;50.136;11.062;2023-11-19T11:08:32;11.70;99.90
7388;DHT22;3735;50.136;11.062;2023-11-19T11:11:03;11.70;99.90
7388;DHT22;3735;50.136;11.062;2023-11-19T11:13:31;11.60;99.90
7388;DHT22;3735;50.136;11.062;2023-11-19T11:15:59;11.70;99.90
7388;DHT22;3735;50.136;11.062;2023-11-19T11:18:26;12.50;99.90
7388;DHT22;3735;50.136;11.062;2023-11-19T11:21:06;12.20;99.90
7388;DHT22;3735;50.136;11.062;2023-11-19T11:36:09;15.80;99.90
7388;DHT22;3735;50.136;11.062;2023-11-19T11:38:44;17.20;99.90
7388;DHT22;3735;50.136;11.062;2023-11-19T11:41:17;18.10;99.90
7388;DHT22;3735;50.136;11.062;2023-11-19T11:43:51;18.60;99.90
7388;DHT22;3735;50.136;11.062;2023-11-19T11:49:02;19.00;99.90
7388;DHT22;3735;50.136;11.062;2023-11-19T11:54:11;19.70;99.90
7388;DHT22;3735;50.136;11.062;2023-11-19T12:02:12;19.20;99.90
7388;DHT22;3735;50.136;11.062;2023-11-19T12:04:46;19.30;99.90
7388;DHT22;3735;50.136;11.062;2023-11-19T12:07:31;18.80;99.90
7388;DHT22;3735;50.136;11.062;2023-11-19T12:10:09;17.30;99.90
7388;DHT22;3735;50.136;11.062;2023-11-19T12:12:38;17.40;99.90
7388;DHT22;3735;50.136;11.062;2023-11-19T12:15:10;18.00;99.90
7388;DHT22;3735;50.136;11.062;2023-11-19T12:17:36;18.30;99.90
7388;DHT22;3735;50.136;11.062;2023-11-19T12:20:15;18.20;99.90
7388;DHT22;3735;50.136;11.062;2023-11-19T12:22:43;18.40;99.90
7388;DHT22;3735;50.136;11.062;2023-11-19T12:25:11;18.90;99.90
7388;DHT22;3735;50.136;11.062;2023-11-19T12:27:40;19.00;99.90
7388;DHT22;3735;50.136;11.062;2023-11-19T12:30:08;18.10;99.90
7388;DHT22;3735;50.136;11.062;2023-11-19T12:32:45;16.60;99.90
7388;DHT22;3735;50.136;11.062;2023-11-19T12:35:12;15.50;99.90
7388;DHT22;3735;50.136;11.062;2023-11-19T12:37:49;15.70;99.90
7388;DHT22;3735;50.136;11.062;2023-11-19T12:40:21;15.80;99.90
7388;DHT22;3735;50.136;11.062;2023-11-19T12:42:49;16.40;99.90
7388;DHT22;3735;50.136;11.062;2023-11-19T12:45:16;16.70;99.90
7388;DHT22;3735;50.136;11.062;2023-11-19T12:47:44;16.70;99.90
7388;DHT22;3735;50.136;11.062;2023-11-19T12:50:15;17.10;99.90
7388;DHT22;3735;50.136;11.062;2023-11-19T12:52:55;16.40;99.90
7388;DHT22;3735;50.136;11.062;2023-11-19T12:55:26;15.40;99.90
7388;DHT22;3735;50.136;11.062;2023-11-19T12:57:52;14.00;99.90
7388;DHT22;3735;50.136;11.062;2023-11-19T13:00:22;13.40;99.90
7388;DHT22;3735;50.136;11.062;2023-11-19T13:02:58;13.30;99.90
7388;DHT22;3735;50.136;11.062;2023-11-19T13:08:05;14.90;99.90
7388;DHT22;3735;50.136;11.062;2023-11-19T13:10:33;16.00;99.90
7388;DHT22;3735;50.136;11.062;2023-11-19T13:13:13;16.70;99.90
7388;DHT22;3735;50.136;11.062;2023-11-19T13:15:39;17.10;99.90
7388;DHT22;3735;50.136;11.062;2023-11-19T13:18:05;17.50;99.90
7388;DHT22;3735;50.136;11.062;2023-11-19T13:20:32;17.00;99.90
7388;DHT22;3735;50.136;11.062;2023-11-19T13:23:00;15.70;99.90
7388;DHT22;3735;50.136;11.062;2023-11-19T13:25:27;14.40;99.90
7388;DHT22;3735;50.136;11.062;2023-11-19T13:27:55;13.40;99.90
7388;DHT22;3735;50.136;11.062;2023-11-19T13:30:22;12.90;99.90
7388;DHT22;3735;50.136;11.062;2023-11-19T13:32:49;12.80;99.90
7388;DHT22;3735;50.136;11.062;2023-11-19T13:35:16;12.70;99.90
7388;DHT22;3735;50.136;11.062;2023-11-19T13:37:43;14.00;99.90
7388;DHT22;3735;50.136;11.062;2023-11-19T13:40:10;15.10;99.90
7388;DHT22;3735;50.136;11.062;2023-11-19T13:42:41;15.70;99.90
7388;DHT22;3735;50.136;11.062;2023-11-19T13:45:11;14.80;99.90
7388;DHT22;3735;50.136;11.062;2023-11-19T13:47:43;13.70;99.90
7388;DHT22;3735;50.136;11.062;2023-11-19T13:50:14;13.00;99.90
7388;DHT22;3735;50.136;11.062;2023-11-19T13:52:42;12.60;99.90
7388;DHT22;3735;50.136;11.062;2023-11-19T13:55:11;12.40;99.90
7388;DHT22;3735;50.136;11.062;2023-11-19T13:57:38;12.30;99.90
7388;DHT22;3735;50.136;11.062;2023-11-19T14:00:07;12.20;99.90
7388;DHT22;3735;50.136;11.062;2023-11-19T14:02:42;12.10;99.90
7388;DHT22;3735;50.136;11.062;2023-11-19T14:05:09;13.20;99.90
7388;DHT22;3735;50.136;11.062;2023-11-19T14:07:36;13.50;99.90
7388;DHT22;3735;50.136;11.062;2023-11-19T14:10:02;13.30;99.90
7388;DHT22;3735;50.136;11.062;2023-11-19T14:12:30;13.10;99.90
7388;DHT22;3735;50.136;11.062;2023-11-19T14:14:57;13.40;99.90
7388;DHT22;3735;50.136;11.062;2023-11-19T14:17:23;13.90;99.90
7388;DHT22;3735;50.136;11.062;2023-11-19T14:19:50;13.60;99.90
7388;DHT22;3735;50.136;11.062;2023-11-19T14:22:16;13.10;99.90
7388;DHT22;3735;50.136;11.062;2023-11-19T14:24:42;12.70;99.90
7388;DHT22;3735;50.136;11.062;2023-11-19T14:27:09;12.40;99.90
7388;DHT22;3735;50.136;11.062;2023-11-19T14:29:36;12.30;99.90
7388;DHT22;3735;50.136;11.062;2023-11-19T14:32:05;12.40;99.90
7388;DHT22;3735;50.136;11.062;2023-11-19T14:34:32;12.40;99.90
7388;DHT22;3735;50.136;11.062;2023-11-19T14:36:58;12.40;99.90
7388;DHT22;3735;50.136;11.062;2023-11-19T14:39:25;12.40;99.90
7388;DHT22;3735;50.136;11.062;2023-11-19T14:41:51;12.30;99.90
7388;DHT22;3735;50.136;11.062;2023-11-19T14:44:19;12.30;99.90
7388;DHT22;3735;50.136;11.062;2023-11-19T14:46:46;12.20;99.90
7388;DHT22;3735;50.136;11.062;2023-11-19T14:49:12;12.20;99.90
7388;DHT22;3735;50.136;11.062;2023-11-19T14:51:39;12.10;99.90
7388;DHT22;3735;50.136;11.062;2023-11-19T14:54:05;12.10;99.90
7388;DHT22;3735;50.136;11.062;2023-11-19T14:56:32;12.10;99.90
7388;DHT22;3735;50.136;11.062;2023-11-19T14:58:58;12.00;99.90
7388;DHT22;3735;50.136;11.062;2023-11-19T15:01:24;12.00;99.90
7388;DHT22;3735;50.136;11.062;2023-11-19T15:03:50;11.90;99.90
7388;DHT22;3735;50.136;11.062;2023-11-19T15:06:16;11.90;99.90
7388;DHT22;3735;50.136;11.062;2023-11-19T15:08:42;11.80;99.90
7388;DHT22;3735;50.136;11.062;2023-11-19T15:11:10;11.90;99.90
7388;DHT22;3735;50.136;11.062;2023-11-19T15:13:37;11.90;99.90
7388;DHT22;3735;50.136;11.062;2023-11-19T15:16:03;11.90;99.90
7388;DHT22;3735;50.136;11.062;2023-11-19T15:18:33;11.90;99.90
7388;DHT22;3735;50.136;11.062;2023-11-19T15:20:58;11.90;99.90
7388;DHT22;3735;50.136;11.062;2023-11-19T15:23:24;11.80;99.90
7388;DHT22;3735;50.136;11.062;2023-11-19T15:25:50;11.70;99.90
7388;DHT22;3735;50.136;11.062;2023-11-19T15:28:15;11.60;99.90
7388;DHT22;3735;50.136;11.062;2023-11-19T15:30:42;11.50;99.90
7388;DHT22;3735;50.136;11.062;2023-11-19T15:33:08;11.50;99.90
7388;DHT22;3735;50.136;11.062;2023-11-19T15:35:34;11.50;99.90
7388;DHT22;3735;50.136;11.062;2023-11-19T15:38:00;11.40;99.90
7388;DHT22;3735;50.136;11.062;2023-11-19T15:40:26;11.30;99.90
7388;DHT22;3735;50.136;11.062;2023-11-19T15:42:52;11.20;99.90
7388;DHT22;3735;50.136;11.062;2023-11-19T15:45:20;11.20;99.90
7388;DHT22;3735;50.136;11.062;2023-11-19T15:47:46;11.20;99.90
7388;DHT22;3735;50.136;11.062;2023-11-19T15:50:12;11.10;99.90
7388;DHT22;3735;50.136;11.062;2023-11-19T15:52:38;11.00;99.90
7388;DHT22;3735;50.136;11.062;2023-11-19T15:55:04;10.90;99.90
7388;DHT22;3735;50.136;11.062;2023-11-19T15:57:30;10.80;99.90
7388;DHT22;3735;50.136;11.062;2023-11-19T15:59:56;10.70;99.90
7388;DHT22;3735;50.136;11.062;2023-11-19T16:02:22;10.50;99.90
7388;DHT22;3735;50.136;11.062;2023-11-19T16:04:48;10.40;99.90
7388;DHT22;3735;50.136;11.062;2023-11-19T16:07:14;10.40;99.90
7388;DHT22;3735;50.136;11.062;2023-11-19T16:09:40;10.40;99.90
7388;DHT22;3735;50.136;11.062;2023-11-19T16:12:07;10.40;99.90
7388;DHT22;3735;50.136;11.062;2023-11-19T16:14:34;10.40;99.90
7388;DHT22;3735;50.136;11.062;2023-11-19T16:17:00;10.40;99.90
7388;DHT22;3735;50.136;11.062;2023-11-19T16:19:26;10.40;99.90
7388;DHT22;3735;50.136;11.062;2023-11-19T16:21:52;10.50;99.90
7388;DHT22;3735;50.136;11.062;2023-11-19T16:24:18;10.50;99.90